createdAt,value
2023-02-19T00:03:08.375Z,1006.085
2023-02-19T00:23:07.252Z,1005.994
2023-02-19T00:43:07.875Z,1005.798
2023-02-19T01:03:08.566Z,1005.749
2023-02-19T01:23:07.376Z,1005.754
2023-02-19T01:43:08.007Z,1005.778
2023-02-19T02:03:08.838Z,1005.721
2023-02-19T02:23:07.875Z,1005.698
2023-02-19T02:43:07.814Z,1005.667
2023-02-19T03:03:08.539Z,1005.667
2023-02-19T03:23:07.324Z,1005.72
2023-02-19T03:43:08.114Z,1006.031
2023-02-19T04:03:08.818Z,1006.074
2023-02-19T04:23:07.580Z,1006.336
2023-02-19T04:43:07.411Z,1006.63
2023-02-19T05:03:08.136Z,1006.94
2023-02-19T05:23:07.946Z,1007.174
2023-02-19T05:43:08.058Z,1007.382
2023-02-19T06:03:08.927Z,1007.577
2023-02-19T06:23:07.629Z,1007.924
2023-02-19T06:43:07.401Z,1008.227
2023-02-19T07:03:08.414Z,1008.551
2023-02-19T07:23:07.482Z,1008.942
2023-02-19T07:43:07.349Z,1009.393
2023-02-19T08:03:08.282Z,1010.143
2023-02-19T08:23:08.132Z,1010.471
2023-02-19T08:43:07.982Z,1010.681
2023-02-19T09:03:08.851Z,1010.992
2023-02-19T09:23:07.865Z,1011.389
2023-02-19T09:43:07.669Z,1011.863
2023-02-19T10:03:08.461Z,1012.168
2023-02-19T10:23:07.567Z,1012.778
2023-02-19T10:43:07.414Z,1013.167
2023-02-19T11:03:08.211Z,1013.192
2023-02-19T11:23:08.127Z,1013.516
2023-02-19T11:43:07.357Z,1013.309
2023-02-19T12:03:08.241Z,1013.369
2023-02-19T12:23:08.241Z,1013.374
2023-02-19T12:43:08.244Z,1013.571
2023-02-19T13:03:08.147Z,1013.869
2023-02-19T13:23:08.061Z,1013.913
2023-02-19T13:43:07.957Z,1013.947
2023-02-19T14:03:08.841Z,1013.939
2023-02-19T14:23:07.699Z,1014.157
2023-02-19T14:43:07.750Z,1014.426
2023-02-19T15:03:08.577Z,1014.268
2023-02-19T15:23:07.403Z,1013.954
2023-02-19T15:43:07.332Z,1013.827
2023-02-19T16:03:08.535Z,1013.889
2023-02-19T16:23:07.685Z,1014.245
2023-02-19T16:43:07.624Z,1014.545
2023-02-19T17:03:08.391Z,1014.659
2023-02-19T17:23:07.211Z,1014.867
2023-02-19T17:43:07.388Z,1014.932
2023-02-19T18:03:08.245Z,1014.986
2023-02-19T18:23:08.092Z,1014.978
2023-02-19T18:43:08.150Z,1015.233
2023-02-19T19:03:08.986Z,1015.381
2023-02-19T19:23:07.723Z,1015.412
2023-02-19T19:43:07.653Z,1015.471
2023-02-19T20:03:08.796Z,1015.435
2023-02-19T20:23:07.611Z,1015.814
2023-02-19T20:43:07.638Z,1015.796
2023-02-19T21:03:08.834Z,1015.505
2023-02-19T21:23:07.731Z,1015.687
2023-02-19T21:43:07.907Z,1015.936
2023-02-19T22:03:09.054Z,1015.687
2023-02-19T22:23:08.115Z,1015.834
2023-02-19T22:43:08.433Z,1015.495
2023-02-19T23:03:08.623Z,1015.764
2023-02-19T23:23:07.344Z,1015.928
2023-02-19T23:43:08.075Z,1015.692
